sensor_id;sensor_type;location;lat;lon;timestamp;P1;durP1;ratioP1;P2;durP2;ratioP2
80675;SDS011;70041;46.088;18.268;2023-08-30T00:01:57;3.93;;;0.80;;
80675;SDS011;70041;46.088;18.268;2023-08-30T00:04:22;1.30;;;0.60;;
80675;SDS011;70041;46.088;18.268;2023-08-30T00:06:47;2.47;;;0.80;;
80675;SDS011;70041;46.088;18.268;2023-08-30T00:09:13;3.03;;;0.73;;
80675;SDS011;70041;46.088;18.268;2023-08-30T00:11:38;2.47;;;0.90;;
80675;SDS011;70041;46.088;18.268;2023-08-30T00:14:05;2.53;;;0.80;;
80675;SDS011;70041;46.088;18.268;2023-08-30T00:16:31;2.87;;;0.90;;
80675;SDS011;70041;46.088;18.268;2023-08-30T00:18:59;2.47;;;0.90;;
80675;SDS011;70041;46.088;18.268;2023-08-30T00:21:25;1.83;;;0.70;;
80675;SDS011;70041;46.088;18.268;2023-08-30T00:23:52;3.00;;;0.95;;
80675;SDS011;70041;46.088;18.268;2023-08-30T00:26:17;3.53;;;0.90;;
80675;SDS011;70041;46.088;18.268;2023-08-30T00:28:43;1.70;;;0.80;;
80675;SDS011;70041;46.088;18.268;2023-08-30T00:31:08;2.87;;;1.10;;
80675;SDS011;70041;46.088;18.268;2023-08-30T00:33:34;4.30;;;1.10;;
80675;SDS011;70041;46.088;18.268;2023-08-30T00:35:59;3.08;;;0.80;;
80675;SDS011;70041;46.088;18.268;2023-08-30T00:38:26;2.97;;;1.00;;
80675;SDS011;70041;46.088;18.268;2023-08-30T00:40:53;2.65;;;0.90;;
80675;SDS011;70041;46.088;18.268;2023-08-30T00:43:19;3.22;;;1.00;;
80675;SDS011;70041;46.088;18.268;2023-08-30T00:45:45;4.13;;;0.90;;
80675;SDS011;70041;46.088;18.268;2023-08-30T00:48:12;4.70;;;0.90;;
80675;SDS011;70041;46.088;18.268;2023-08-30T00:50:38;2.65;;;0.90;;
80675;SDS011;70041;46.088;18.268;2023-08-30T00:53:04;2.67;;;1.00;;
80675;SDS011;70041;46.088;18.268;2023-08-30T00:55:34;3.30;;;0.98;;
80675;SDS011;70041;46.088;18.268;2023-08-30T00:58:00;3.10;;;0.93;;
80675;SDS011;70041;46.088;18.268;2023-08-30T01:00:27;4.57;;;1.00;;
80675;SDS011;70041;46.088;18.268;2023-08-30T01:02:54;1.50;;;0.70;;
80675;SDS011;70041;46.088;18.268;2023-08-30T01:05:20;2.88;;;1.10;;
80675;SDS011;70041;46.088;18.268;2023-08-30T01:07:45;6.33;;;1.20;;
80675;SDS011;70041;46.088;18.268;2023-08-30T01:10:10;4.23;;;1.10;;
80675;SDS011;70041;46.088;18.268;2023-08-30T01:12:45;4.20;;;1.10;;
80675;SDS011;70041;46.088;18.268;2023-08-30T01:15:19;4.83;;;1.17;;
80675;SDS011;70041;46.088;18.268;2023-08-30T01:17:49;4.63;;;1.10;;
80675;SDS011;70041;46.088;18.268;2023-08-30T01:20:19;3.30;;;1.10;;
80675;SDS011;70041;46.088;18.268;2023-08-30T01:28:16;4.57;;;1.10;;
80675;SDS011;70041;46.088;18.268;2023-08-30T01:30:44;6.07;;;1.20;;
80675;SDS011;70041;46.088;18.268;2023-08-30T01:33:10;3.45;;;1.20;;
80675;SDS011;70041;46.088;18.268;2023-08-30T01:35:37;3.28;;;1.20;;
80675;SDS011;70041;46.088;18.268;2023-08-30T01:38:06;3.63;;;1.10;;
80675;SDS011;70041;46.088;18.268;2023-08-30T01:40:35;4.93;;;1.47;;
80675;SDS011;70041;46.088;18.268;2023-08-30T01:43:02;3.63;;;1.10;;
80675;SDS011;70041;46.088;18.268;2023-08-30T01:45:30;2.80;;;1.02;;
80675;SDS011;70041;46.088;18.268;2023-08-30T01:47:58;4.10;;;1.27;;
80675;SDS011;70041;46.088;18.268;2023-08-30T01:50:23;5.60;;;1.20;;
80675;SDS011;70041;46.088;18.268;2023-08-30T01:52:50;4.15;;;1.13;;
80675;SDS011;70041;46.088;18.268;2023-08-30T01:55:16;3.80;;;1.50;;
80675;SDS011;70041;46.088;18.268;2023-08-30T01:57:45;4.77;;;1.70;;
80675;SDS011;70041;46.088;18.268;2023-08-30T02:00:11;4.40;;;1.35;;
80675;SDS011;70041;46.088;18.268;2023-08-30T02:02:37;5.45;;;1.45;;
80675;SDS011;70041;46.088;18.268;2023-08-30T02:05:02;4.30;;;1.40;;
80675;SDS011;70041;46.088;18.268;2023-08-30T02:07:40;3.63;;;1.47;;
80675;SDS011;70041;46.088;18.268;2023-08-30T02:10:15;4.63;;;1.42;;
80675;SDS011;70041;46.088;18.268;2023-08-30T02:12:48;4.97;;;1.67;;
80675;SDS011;70041;46.088;18.268;2023-08-30T02:15:18;5.45;;;1.50;;
80675;SDS011;70041;46.088;18.268;2023-08-30T02:17:44;4.03;;;1.50;;
80675;SDS011;70041;46.088;18.268;2023-08-30T02:20:11;4.17;;;1.60;;
80675;SDS011;70041;46.088;18.268;2023-08-30T02:22:37;4.38;;;1.73;;
80675;SDS011;70041;46.088;18.268;2023-08-30T02:25:03;6.30;;;1.70;;
80675;SDS011;70041;46.088;18.268;2023-08-30T02:27:30;4.10;;;1.67;;
80675;SDS011;70041;46.088;18.268;2023-08-30T02:29:56;4.75;;;1.60;;
80675;SDS011;70041;46.088;18.268;2023-08-30T02:32:22;4.37;;;1.83;;
80675;SDS011;70041;46.088;18.268;2023-08-30T02:34:51;4.03;;;1.60;;
80675;SDS011;70041;46.088;18.268;2023-08-30T02:37:17;4.10;;;1.80;;
80675;SDS011;70041;46.088;18.268;2023-08-30T02:39:43;5.63;;;1.50;;
80675;SDS011;70041;46.088;18.268;2023-08-30T02:42:09;2.70;;;1.10;;
80675;SDS011;70041;46.088;18.268;2023-08-30T02:44:34;3.15;;;1.30;;
80675;SDS011;70041;46.088;18.268;2023-08-30T02:47:00;5.73;;;1.43;;
80675;SDS011;70041;46.088;18.268;2023-08-30T02:49:25;3.10;;;1.33;;
80675;SDS011;70041;46.088;18.268;2023-08-30T02:51:50;4.40;;;1.33;;
80675;SDS011;70041;46.088;18.268;2023-08-30T02:54:16;5.10;;;1.50;;
80675;SDS011;70041;46.088;18.268;2023-08-30T02:56:42;5.20;;;1.27;;
80675;SDS011;70041;46.088;18.268;2023-08-30T02:59:08;4.50;;;1.70;;
80675;SDS011;70041;46.088;18.268;2023-08-30T03:01:34;3.63;;;1.40;;
80675;SDS011;70041;46.088;18.268;2023-08-30T03:04:00;4.88;;;1.70;;
80675;SDS011;70041;46.088;18.268;2023-08-30T03:06:25;4.23;;;1.70;;
80675;SDS011;70041;46.088;18.268;2023-08-30T03:08:50;4.37;;;1.50;;
80675;SDS011;70041;46.088;18.268;2023-08-30T03:11:16;4.60;;;1.70;;
80675;SDS011;70041;46.088;18.268;2023-08-30T03:13:41;2.93;;;1.33;;
80675;SDS011;70041;46.088;18.268;2023-08-30T03:16:10;4.88;;;1.63;;
80675;SDS011;70041;46.088;18.268;2023-08-30T03:18:37;5.88;;;1.60;;
80675;SDS011;70041;46.088;18.268;2023-08-30T03:21:02;6.37;;;1.90;;
80675;SDS011;70041;46.088;18.268;2023-08-30T03:23:28;5.53;;;2.03;;
80675;SDS011;70041;46.088;18.268;2023-08-30T03:25:54;4.75;;;2.10;;
80675;SDS011;70041;46.088;18.268;2023-08-30T03:28:21;5.53;;;2.30;;
80675;SDS011;70041;46.088;18.268;2023-08-30T03:30:47;6.57;;;2.35;;
80675;SDS011;70041;46.088;18.268;2023-08-30T03:33:12;8.53;;;2.60;;
80675;SDS011;70041;46.088;18.268;2023-08-30T03:35:38;6.25;;;2.33;;
80675;SDS011;70041;46.088;18.268;2023-08-30T03:38:04;5.33;;;2.30;;
80675;SDS011;70041;46.088;18.268;2023-08-30T03:40:30;6.97;;;2.72;;
80675;SDS011;70041;46.088;18.268;2023-08-30T03:42:55;5.38;;;2.47;;
80675;SDS011;70041;46.088;18.268;2023-08-30T03:45:22;5.30;;;2.50;;
80675;SDS011;70041;46.088;18.268;2023-08-30T03:47:47;7.25;;;2.92;;
80675;SDS011;70041;46.088;18.268;2023-08-30T03:50:13;6.83;;;2.80;;
80675;SDS011;70041;46.088;18.268;2023-08-30T03:52:38;7.77;;;3.67;;
80675;SDS011;70041;46.088;18.268;2023-08-30T03:55:04;7.90;;;3.57;;
80675;SDS011;70041;46.088;18.268;2023-08-30T03:57:29;8.30;;;3.70;;
80675;SDS011;70041;46.088;18.268;2023-08-30T03:59:55;8.17;;;3.20;;
80675;SDS011;70041;46.088;18.268;2023-08-30T04:02:20;6.63;;;3.53;;
80675;SDS011;70041;46.088;18.268;2023-08-30T04:04:49;7.43;;;3.65;;
80675;SDS011;70041;46.088;18.268;2023-08-30T04:07:14;7.23;;;3.33;;
80675;SDS011;70041;46.088;18.268;2023-08-30T04:09:40;7.90;;;3.30;;
80675;SDS011;70041;46.088;18.268;2023-08-30T04:12:06;6.93;;;3.40;;
80675;SDS011;70041;46.088;18.268;2023-08-30T04:14:32;6.82;;;3.28;;
80675;SDS011;70041;46.088;18.268;2023-08-30T04:16:57;6.53;;;3.33;;
80675;SDS011;70041;46.088;18.268;2023-08-30T04:19:22;5.90;;;3.07;;
80675;SDS011;70041;46.088;18.268;2023-08-30T04:21:48;6.10;;;3.10;;
80675;SDS011;70041;46.088;18.268;2023-08-30T04:24:14;5.80;;;2.73;;
80675;SDS011;70041;46.088;18.268;2023-08-30T04:26:40;5.95;;;2.63;;
80675;SDS011;70041;46.088;18.268;2023-08-30T04:29:05;6.60;;;3.20;;
80675;SDS011;70041;46.088;18.268;2023-08-30T04:31:31;7.25;;;2.80;;
80675;SDS011;70041;46.088;18.268;2023-08-30T04:33:56;8.63;;;3.13;;
80675;SDS011;70041;46.088;18.268;2023-08-30T04:36:22;6.47;;;2.83;;
80675;SDS011;70041;46.088;18.268;2023-08-30T04:38:47;7.90;;;2.80;;
80675;SDS011;70041;46.088;18.268;2023-08-30T04:41:13;7.20;;;2.77;;
80675;SDS011;70041;46.088;18.268;2023-08-30T04:43:38;6.03;;;2.63;;
80675;SDS011;70041;46.088;18.268;2023-08-30T04:46:03;5.90;;;2.47;;
80675;SDS011;70041;46.088;18.268;2023-08-30T04:48:29;6.60;;;2.57;;
80675;SDS011;70041;46.088;18.268;2023-08-30T04:50:58;6.17;;;2.67;;
80675;SDS011;70041;46.088;18.268;2023-08-30T04:53:24;6.25;;;2.80;;
80675;SDS011;70041;46.088;18.268;2023-08-30T04:55:50;6.97;;;2.87;;
80675;SDS011;70041;46.088;18.268;2023-08-30T04:58:15;6.43;;;2.72;;
80675;SDS011;70041;46.088;18.268;2023-08-30T05:00:41;7.27;;;2.83;;
80675;SDS011;70041;46.088;18.268;2023-08-30T05:03:06;6.77;;;2.60;;
80675;SDS011;70041;46.088;18.268;2023-08-30T05:05:32;6.60;;;2.53;;
80675;SDS011;70041;46.088;18.268;2023-08-30T05:07:57;6.00;;;2.88;;
80675;SDS011;70041;46.088;18.268;2023-08-30T05:10:22;6.73;;;2.63;;
80675;SDS011;70041;46.088;18.268;2023-08-30T05:12:48;5.60;;;2.50;;
80675;SDS011;70041;46.088;18.268;2023-08-30T05:15:16;6.40;;;2.60;;
80675;SDS011;70041;46.088;18.268;2023-08-30T05:17:42;6.57;;;2.55;;
80675;SDS011;70041;46.088;18.268;2023-08-30T05:20:08;6.27;;;2.73;;
80675;SDS011;70041;46.088;18.268;2023-08-30T05:22:34;7.22;;;2.22;;
80675;SDS011;70041;46.088;18.268;2023-08-30T05:24:59;5.30;;;2.17;;
80675;SDS011;70041;46.088;18.268;2023-08-30T05:27:25;5.38;;;2.20;;
80675;SDS011;70041;46.088;18.268;2023-08-30T05:29:51;4.80;;;2.00;;
80675;SDS011;70041;46.088;18.268;2023-08-30T05:32:16;5.50;;;1.90;;
80675;SDS011;70041;46.088;18.268;2023-08-30T05:34:42;5.70;;;2.10;;
80675;SDS011;70041;46.088;18.268;2023-08-30T05:37:07;6.70;;;1.97;;
80675;SDS011;70041;46.088;18.268;2023-08-30T05:39:33;5.50;;;2.17;;
80675;SDS011;70041;46.088;18.268;2023-08-30T05:41:59;7.75;;;2.20;;
80675;SDS011;70041;46.088;18.268;2023-08-30T05:44:25;6.03;;;2.13;;
80675;SDS011;70041;46.088;18.268;2023-08-30T05:46:50;6.28;;;2.00;;
80675;SDS011;70041;46.088;18.268;2023-08-30T05:49:16;5.20;;;2.00;;
80675;SDS011;70041;46.088;18.268;2023-08-30T05:51:41;5.83;;;1.80;;
80675;SDS011;70041;46.088;18.268;2023-08-30T05:54:07;5.25;;;2.10;;
80675;SDS011;70041;46.088;18.268;2023-08-30T05:56:32;4.87;;;1.87;;
80675;SDS011;70041;46.088;18.268;2023-08-30T05:58:58;5.70;;;1.90;;
80675;SDS011;70041;46.088;18.268;2023-08-30T06:01:23;4.73;;;1.93;;
80675;SDS011;70041;46.088;18.268;2023-08-30T06:03:49;5.03;;;1.67;;
80675;SDS011;70041;46.088;18.268;2023-08-30T06:06:15;6.47;;;1.80;;
80675;SDS011;70041;46.088;18.268;2023-08-30T06:08:40;6.27;;;2.37;;
80675;SDS011;70041;46.088;18.268;2023-08-30T06:11:06;5.60;;;1.80;;
80675;SDS011;70041;46.088;18.268;2023-08-30T06:13:31;4.97;;;1.50;;
80675;SDS011;70041;46.088;18.268;2023-08-30T06:15:57;6.70;;;1.73;;
80675;SDS011;70041;46.088;18.268;2023-08-30T06:18:22;4.43;;;1.70;;
80675;SDS011;70041;46.088;18.268;2023-08-30T06:20:47;4.30;;;1.40;;
80675;SDS011;70041;46.088;18.268;2023-08-30T06:23:14;4.60;;;1.35;;
80675;SDS011;70041;46.088;18.268;2023-08-30T06:25:40;4.77;;;1.73;;
80675;SDS011;70041;46.088;18.268;2023-08-30T06:28:06;3.38;;;1.50;;
80675;SDS011;70041;46.088;18.268;2023-08-30T06:30:31;6.07;;;1.60;;
80675;SDS011;70041;46.088;18.268;2023-08-30T06:32:57;6.03;;;1.60;;
80675;SDS011;70041;46.088;18.268;2023-08-30T06:35:23;4.45;;;1.50;;
80675;SDS011;70041;46.088;18.268;2023-08-30T06:37:48;4.45;;;1.60;;
80675;SDS011;70041;46.088;18.268;2023-08-30T06:40:14;5.23;;;1.50;;
80675;SDS011;70041;46.088;18.268;2023-08-30T06:42:39;3.30;;;1.30;;
80675;SDS011;70041;46.088;18.268;2023-08-30T06:45:05;4.63;;;1.80;;
80675;SDS011;70041;46.088;18.268;2023-08-30T06:47:31;4.32;;;1.48;;
80675;SDS011;70041;46.088;18.268;2023-08-30T06:49:56;3.47;;;1.23;;
80675;SDS011;70041;46.088;18.268;2023-08-30T06:52:22;4.68;;;1.50;;
80675;SDS011;70041;46.088;18.268;2023-08-30T06:54:47;3.03;;;1.30;;
80675;SDS011;70041;46.088;18.268;2023-08-30T06:57:13;3.80;;;1.27;;
80675;SDS011;70041;46.088;18.268;2023-08-30T06:59:38;5.90;;;1.83;;
80675;SDS011;70041;46.088;18.268;2023-08-30T07:02:04;6.03;;;1.70;;
80675;SDS011;70041;46.088;18.268;2023-08-30T07:04:29;5.13;;;1.80;;
80675;SDS011;70041;46.088;18.268;2023-08-30T07:06:55;4.45;;;1.60;;
80675;SDS011;70041;46.088;18.268;2023-08-30T07:09:20;5.80;;;1.70;;
80675;SDS011;70041;46.088;18.268;2023-08-30T07:11:47;3.25;;;1.60;;
80675;SDS011;70041;46.088;18.268;2023-08-30T07:14:12;4.13;;;1.50;;
80675;SDS011;70041;46.088;18.268;2023-08-30T07:16:39;5.43;;;1.60;;
80675;SDS011;70041;46.088;18.268;2023-08-30T07:19:05;3.15;;;1.40;;
80675;SDS011;70041;46.088;18.268;2023-08-30T07:21:31;4.90;;;1.70;;
80675;SDS011;70041;46.088;18.268;2023-08-30T07:23:58;5.00;;;1.60;;
80675;SDS011;70041;46.088;18.268;2023-08-30T07:26:23;3.55;;;1.60;;
80675;SDS011;70041;46.088;18.268;2023-08-30T07:28:49;4.60;;;1.50;;
80675;SDS011;70041;46.088;18.268;2023-08-30T07:31:14;4.83;;;1.40;;
80675;SDS011;70041;46.088;18.268;2023-08-30T07:33:41;3.95;;;1.23;;
80675;SDS011;70041;46.088;18.268;2023-08-30T07:36:07;5.67;;;1.70;;
80675;SDS011;70041;46.088;18.268;2023-08-30T07:38:33;5.25;;;1.55;;
80675;SDS011;70041;46.088;18.268;2023-08-30T07:41:00;6.90;;;1.70;;
80675;SDS011;70041;46.088;18.268;2023-08-30T07:43:25;5.27;;;1.80;;
80675;SDS011;70041;46.088;18.268;2023-08-30T07:45:51;4.17;;;1.60;;
80675;SDS011;70041;46.088;18.268;2023-08-30T07:48:16;5.35;;;1.50;;
80675;SDS011;70041;46.088;18.268;2023-08-30T07:50:41;5.53;;;1.60;;
80675;SDS011;70041;46.088;18.268;2023-08-30T07:53:07;5.43;;;1.60;;
80675;SDS011;70041;46.088;18.268;2023-08-30T07:55:32;5.53;;;1.70;;
80675;SDS011;70041;46.088;18.268;2023-08-30T07:57:58;4.93;;;1.73;;
80675;SDS011;70041;46.088;18.268;2023-08-30T08:00:23;4.53;;;1.70;;
80675;SDS011;70041;46.088;18.268;2023-08-30T08:02:48;5.30;;;2.00;;
80675;SDS011;70041;46.088;18.268;2023-08-30T08:05:14;5.30;;;1.53;;
80675;SDS011;70041;46.088;18.268;2023-08-30T08:07:39;4.83;;;1.60;;
80675;SDS011;70041;46.088;18.268;2023-08-30T08:10:07;4.18;;;1.80;;
80675;SDS011;70041;46.088;18.268;2023-08-30T08:12:34;4.80;;;1.60;;
80675;SDS011;70041;46.088;18.268;2023-08-30T08:15:00;5.30;;;1.90;;
80675;SDS011;70041;46.088;18.268;2023-08-30T08:17:25;5.13;;;1.43;;
80675;SDS011;70041;46.088;18.268;2023-08-30T08:19:50;5.40;;;1.77;;
80675;SDS011;70041;46.088;18.268;2023-08-30T08:22:16;5.13;;;1.60;;
80675;SDS011;70041;46.088;18.268;2023-08-30T08:24:42;4.67;;;1.60;;
80675;SDS011;70041;46.088;18.268;2023-08-30T08:27:10;4.15;;;1.50;;
80675;SDS011;70041;46.088;18.268;2023-08-30T08:29:36;5.28;;;1.90;;
80675;SDS011;70041;46.088;18.268;2023-08-30T08:32:03;4.05;;;1.70;;
80675;SDS011;70041;46.088;18.268;2023-08-30T08:34:28;4.83;;;1.70;;
80675;SDS011;70041;46.088;18.268;2023-08-30T08:36:54;4.28;;;1.50;;
80675;SDS011;70041;46.088;18.268;2023-08-30T08:39:19;4.37;;;1.60;;
80675;SDS011;70041;46.088;18.268;2023-08-30T08:41:47;5.67;;;1.67;;
80675;SDS011;70041;46.088;18.268;2023-08-30T08:44:17;4.45;;;1.60;;
80675;SDS011;70041;46.088;18.268;2023-08-30T08:46:44;4.80;;;1.50;;
80675;SDS011;70041;46.088;18.268;2023-08-30T08:49:14;5.75;;;1.60;;
80675;SDS011;70041;46.088;18.268;2023-08-30T08:51:41;4.50;;;1.40;;
80675;SDS011;70041;46.088;18.268;2023-08-30T08:54:08;3.97;;;1.50;;
80675;SDS011;70041;46.088;18.268;2023-08-30T08:56:34;4.38;;;1.80;;
80675;SDS011;70041;46.088;18.268;2023-08-30T08:59:00;4.43;;;1.70;;
80675;SDS011;70041;46.088;18.268;2023-08-30T09:01:26;4.63;;;1.80;;
80675;SDS011;70041;46.088;18.268;2023-08-30T09:03:52;5.07;;;1.57;;
80675;SDS011;70041;46.088;18.268;2023-08-30T09:06:18;4.57;;;1.80;;
80675;SDS011;70041;46.088;18.268;2023-08-30T09:08:44;4.15;;;1.70;;
80675;SDS011;70041;46.088;18.268;2023-08-30T09:11:09;6.83;;;2.00;;
80675;SDS011;70041;46.088;18.268;2023-08-30T09:13:35;5.17;;;1.80;;
80675;SDS011;70041;46.088;18.268;2023-08-30T09:16:00;4.55;;;1.75;;
80675;SDS011;70041;46.088;18.268;2023-08-30T09:18:27;4.75;;;1.70;;
80675;SDS011;70041;46.088;18.268;2023-08-30T09:21:04;5.80;;;1.70;;
80675;SDS011;70041;46.088;18.268;2023-08-30T09:23:33;3.80;;;1.50;;
80675;SDS011;70041;46.088;18.268;2023-08-30T09:25:59;4.30;;;1.70;;
80675;SDS011;70041;46.088;18.268;2023-08-30T09:28:25;6.73;;;1.83;;
80675;SDS011;70041;46.088;18.268;2023-08-30T09:30:51;6.10;;;1.77;;
80675;SDS011;70041;46.088;18.268;2023-08-30T09:33:20;6.22;;;1.80;;
80675;SDS011;70041;46.088;18.268;2023-08-30T09:35:55;5.80;;;2.00;;
80675;SDS011;70041;46.088;18.268;2023-08-30T09:38:21;5.60;;;1.90;;
80675;SDS011;70041;46.088;18.268;2023-08-30T09:40:46;5.90;;;1.80;;
80675;SDS011;70041;46.088;18.268;2023-08-30T09:43:12;7.18;;;2.10;;
80675;SDS011;70041;46.088;18.268;2023-08-30T09:45:41;6.95;;;1.90;;
80675;SDS011;70041;46.088;18.268;2023-08-30T09:48:07;8.30;;;2.23;;
80675;SDS011;70041;46.088;18.268;2023-08-30T09:50:34;4.78;;;1.90;;
80675;SDS011;70041;46.088;18.268;2023-08-30T09:53:09;6.30;;;1.92;;
80675;SDS011;70041;46.088;18.268;2023-08-30T09:55:35;5.05;;;2.03;;
80675;SDS011;70041;46.088;18.268;2023-08-30T09:58:04;4.73;;;1.70;;
80675;SDS011;70041;46.088;18.268;2023-08-30T10:00:30;6.40;;;1.90;;
80675;SDS011;70041;46.088;18.268;2023-08-30T10:02:58;5.78;;;1.85;;
80675;SDS011;70041;46.088;18.268;2023-08-30T10:05:24;7.20;;;1.90;;
80675;SDS011;70041;46.088;18.268;2023-08-30T10:07:52;5.63;;;1.80;;
80675;SDS011;70041;46.088;18.268;2023-08-30T10:10:19;4.70;;;1.80;;
80675;SDS011;70041;46.088;18.268;2023-08-30T10:12:46;7.78;;;2.35;;
80675;SDS011;70041;46.088;18.268;2023-08-30T10:15:11;6.20;;;1.63;;
80675;SDS011;70041;46.088;18.268;2023-08-30T10:17:37;5.00;;;1.93;;
80675;SDS011;70041;46.088;18.268;2023-08-30T10:20:06;7.47;;;2.65;;
80675;SDS011;70041;46.088;18.268;2023-08-30T10:22:34;6.82;;;2.28;;
80675;SDS011;70041;46.088;18.268;2023-08-30T10:25:02;5.13;;;1.90;;
80675;SDS011;70041;46.088;18.268;2023-08-30T10:27:31;5.68;;;2.05;;
80675;SDS011;70041;46.088;18.268;2023-08-30T10:29:58;6.68;;;2.22;;
80675;SDS011;70041;46.088;18.268;2023-08-30T10:32:25;6.68;;;2.00;;
80675;SDS011;70041;46.088;18.268;2023-08-30T10:34:51;9.50;;;2.27;;
80675;SDS011;70041;46.088;18.268;2023-08-30T10:37:22;10.05;;;2.63;;
80675;SDS011;70041;46.088;18.268;2023-08-30T10:39:51;8.23;;;2.20;;
80675;SDS011;70041;46.088;18.268;2023-08-30T10:42:21;4.80;;;1.75;;
80675;SDS011;70041;46.088;18.268;2023-08-30T10:44:48;5.18;;;1.70;;
80675;SDS011;70041;46.088;18.268;2023-08-30T10:47:23;4.50;;;1.87;;
80675;SDS011;70041;46.088;18.268;2023-08-30T10:49:53;5.63;;;1.83;;
80675;SDS011;70041;46.088;18.268;2023-08-30T10:52:23;4.90;;;1.70;;
80675;SDS011;70041;46.088;18.268;2023-08-30T10:54:50;4.25;;;1.67;;
80675;SDS011;70041;46.088;18.268;2023-08-30T10:57:18;4.47;;;1.70;;
80675;SDS011;70041;46.088;18.268;2023-08-30T11:02:45;4.25;;;1.65;;
80675;SDS011;70041;46.088;18.268;2023-08-30T11:05:14;5.40;;;1.60;;
80675;SDS011;70041;46.088;18.268;2023-08-30T11:07:40;6.35;;;1.50;;
80675;SDS011;70041;46.088;18.268;2023-08-30T11:10:06;5.17;;;1.70;;
80675;SDS011;70041;46.088;18.268;2023-08-30T11:12:32;6.47;;;1.90;;
80675;SDS011;70041;46.088;18.268;2023-08-30T11:14:58;4.50;;;1.70;;
80675;SDS011;70041;46.088;18.268;2023-08-30T11:17:23;6.15;;;1.98;;
80675;SDS011;70041;46.088;18.268;2023-08-30T11:19:51;5.60;;;1.60;;
80675;SDS011;70041;46.088;18.268;2023-08-30T11:22:23;3.35;;;1.35;;
80675;SDS011;70041;46.088;18.268;2023-08-30T11:24:49;4.22;;;1.60;;
80675;SDS011;70041;46.088;18.268;2023-08-30T11:27:18;4.20;;;1.52;;
80675;SDS011;70041;46.088;18.268;2023-08-30T11:29:43;4.40;;;1.50;;
80675;SDS011;70041;46.088;18.268;2023-08-30T11:32:09;7.05;;;1.65;;
80675;SDS011;70041;46.088;18.268;2023-08-30T11:34:34;5.70;;;1.77;;
80675;SDS011;70041;46.088;18.268;2023-08-30T11:36:59;4.30;;;1.40;;
80675;SDS011;70041;46.088;18.268;2023-08-30T11:39:27;5.37;;;1.60;;
80675;SDS011;70041;46.088;18.268;2023-08-30T11:41:53;5.18;;;1.60;;
80675;SDS011;70041;46.088;18.268;2023-08-30T11:44:19;4.90;;;1.60;;
80675;SDS011;70041;46.088;18.268;2023-08-30T11:46:44;4.83;;;1.43;;
80675;SDS011;70041;46.088;18.268;2023-08-30T11:49:10;6.43;;;1.70;;
80675;SDS011;70041;46.088;18.268;2023-08-30T11:51:35;5.60;;;1.52;;
80675;SDS011;70041;46.088;18.268;2023-08-30T11:54:01;4.55;;;1.70;;
80675;SDS011;70041;46.088;18.268;2023-08-30T11:56:28;5.47;;;1.70;;
80675;SDS011;70041;46.088;18.268;2023-08-30T11:58:55;5.03;;;1.48;;
80675;SDS011;70041;46.088;18.268;2023-08-30T12:01:20;3.63;;;1.50;;
80675;SDS011;70041;46.088;18.268;2023-08-30T12:03:46;5.05;;;1.50;;
80675;SDS011;70041;46.088;18.268;2023-08-30T12:06:15;4.27;;;1.40;;
80675;SDS011;70041;46.088;18.268;2023-08-30T12:08:41;6.72;;;1.70;;
80675;SDS011;70041;46.088;18.268;2023-08-30T12:11:16;5.15;;;1.58;;
80675;SDS011;70041;46.088;18.268;2023-08-30T12:13:44;4.43;;;1.30;;
80675;SDS011;70041;46.088;18.268;2023-08-30T12:16:09;3.80;;;1.60;;
80675;SDS011;70041;46.088;18.268;2023-08-30T12:18:40;5.22;;;1.60;;
80675;SDS011;70041;46.088;18.268;2023-08-30T12:21:07;5.03;;;1.80;;
80675;SDS011;70041;46.088;18.268;2023-08-30T12:23:33;4.72;;;1.60;;
80675;SDS011;70041;46.088;18.268;2023-08-30T12:28:31;4.93;;;1.60;;
80675;SDS011;70041;46.088;18.268;2023-08-30T12:30:58;4.88;;;1.73;;
80675;SDS011;70041;46.088;18.268;2023-08-30T12:33:23;4.57;;;1.40;;
80675;SDS011;70041;46.088;18.268;2023-08-30T12:35:56;4.80;;;1.70;;
80675;SDS011;70041;46.088;18.268;2023-08-30T12:38:23;5.03;;;1.63;;
80675;SDS011;70041;46.088;18.268;2023-08-30T12:40:50;6.18;;;1.95;;
80675;SDS011;70041;46.088;18.268;2023-08-30T12:43:17;5.35;;;1.80;;
80675;SDS011;70041;46.088;18.268;2023-08-30T12:45:45;4.57;;;1.83;;
80675;SDS011;70041;46.088;18.268;2023-08-30T12:48:11;5.30;;;1.73;;
80675;SDS011;70041;46.088;18.268;2023-08-30T12:50:39;4.88;;;1.70;;
80675;SDS011;70041;46.088;18.268;2023-08-30T12:53:05;5.03;;;1.57;;
80675;SDS011;70041;46.088;18.268;2023-08-30T12:55:31;4.80;;;1.63;;
80675;SDS011;70041;46.088;18.268;2023-08-30T12:57:57;6.18;;;1.70;;
80675;SDS011;70041;46.088;18.268;2023-08-30T13:00:23;4.65;;;1.75;;
80675;SDS011;70041;46.088;18.268;2023-08-30T13:02:49;3.60;;;1.33;;
80675;SDS011;70041;46.088;18.268;2023-08-30T13:05:15;6.53;;;1.53;;
80675;SDS011;70041;46.088;18.268;2023-08-30T13:07:40;4.87;;;1.80;;
80675;SDS011;70041;46.088;18.268;2023-08-30T13:10:06;5.35;;;1.80;;
80675;SDS011;70041;46.088;18.268;2023-08-30T13:12:32;4.85;;;1.95;;
80675;SDS011;70041;46.088;18.268;2023-08-30T13:14:58;5.70;;;2.07;;
80675;SDS011;70041;46.088;18.268;2023-08-30T13:17:23;4.83;;;1.80;;
80675;SDS011;70041;46.088;18.268;2023-08-30T13:19:49;6.13;;;1.80;;
80675;SDS011;70041;46.088;18.268;2023-08-30T13:22:14;5.47;;;2.00;;
80675;SDS011;70041;46.088;18.268;2023-08-30T13:24:40;6.03;;;1.80;;
80675;SDS011;70041;46.088;18.268;2023-08-30T13:27:05;6.23;;;2.00;;
80675;SDS011;70041;46.088;18.268;2023-08-30T13:29:31;4.43;;;2.00;;
80675;SDS011;70041;46.088;18.268;2023-08-30T13:31:56;5.22;;;1.90;;
80675;SDS011;70041;46.088;18.268;2023-08-30T13:34:22;5.87;;;2.10;;
80675;SDS011;70041;46.088;18.268;2023-08-30T13:36:47;5.70;;;2.20;;
80675;SDS011;70041;46.088;18.268;2023-08-30T13:39:13;6.03;;;2.20;;
80675;SDS011;70041;46.088;18.268;2023-08-30T13:41:39;4.70;;;1.90;;
80675;SDS011;70041;46.088;18.268;2023-08-30T13:44:05;5.80;;;2.25;;
80675;SDS011;70041;46.088;18.268;2023-08-30T13:46:31;5.73;;;1.87;;
80675;SDS011;70041;46.088;18.268;2023-08-30T13:48:57;6.75;;;2.25;;
80675;SDS011;70041;46.088;18.268;2023-08-30T13:51:23;7.15;;;2.35;;
80675;SDS011;70041;46.088;18.268;2023-08-30T13:53:49;6.10;;;2.03;;
80675;SDS011;70041;46.088;18.268;2023-08-30T13:56:16;5.47;;;1.98;;
80675;SDS011;70041;46.088;18.268;2023-08-30T13:58:42;5.07;;;2.30;;
80675;SDS011;70041;46.088;18.268;2023-08-30T14:01:07;5.97;;;2.17;;
80675;SDS011;70041;46.088;18.268;2023-08-30T14:03:33;4.57;;;2.00;;
80675;SDS011;70041;46.088;18.268;2023-08-30T14:05:58;5.50;;;2.10;;
80675;SDS011;70041;46.088;18.268;2023-08-30T14:08:24;6.00;;;2.10;;
80675;SDS011;70041;46.088;18.268;2023-08-30T14:10:49;4.83;;;1.67;;
80675;SDS011;70041;46.088;18.268;2023-08-30T14:13:15;5.13;;;1.67;;
80675;SDS011;70041;46.088;18.268;2023-08-30T14:15:40;3.07;;;1.17;;
80675;SDS011;70041;46.088;18.268;2023-08-30T14:18:07;2.88;;;1.17;;
80675;SDS011;70041;46.088;18.268;2023-08-30T14:20:32;5.37;;;1.37;;
80675;SDS011;70041;46.088;18.268;2023-08-30T14:22:58;5.03;;;1.25;;
80675;SDS011;70041;46.088;18.268;2023-08-30T14:25:23;4.80;;;1.30;;
80675;SDS011;70041;46.088;18.268;2023-08-30T14:27:49;4.87;;;1.50;;
80675;SDS011;70041;46.088;18.268;2023-08-30T14:30:14;3.73;;;1.33;;
80675;SDS011;70041;46.088;18.268;2023-08-30T14:32:40;4.03;;;1.30;;
80675;SDS011;70041;46.088;18.268;2023-08-30T14:35:05;4.30;;;1.40;;
80675;SDS011;70041;46.088;18.268;2023-08-30T14:37:31;4.38;;;1.50;;
80675;SDS011;70041;46.088;18.268;2023-08-30T14:39:59;5.25;;;1.23;;